createdAt,value
2018-07-11T00:01:33.368Z,14.70
2018-07-11T00:04:03.332Z,14.60
2018-07-11T00:06:32.591Z,14.60
2018-07-11T00:09:01.760Z,14.50
2018-07-11T00:11:30.827Z,14.50
2018-07-11T00:13:59.883Z,14.50
2018-07-11T00:16:28.960Z,14.50
2018-07-11T00:18:58.021Z,14.50
2018-07-11T00:21:27.144Z,14.40
2018-07-11T00:23:56.247Z,14.40
2018-07-11T00:26:26.286Z,14.40
2018-07-11T00:28:55.395Z,14.40
2018-07-11T00:31:24.480Z,14.40
2018-07-11T00:33:53.606Z,14.40
2018-07-11T00:36:22.674Z,14.20
2018-07-11T00:38:51.806Z,14.20
2018-07-11T00:41:20.947Z,14.10
2018-07-11T00:43:50.079Z,14.10
2018-07-11T00:46:19.454Z,14.10
2018-07-11T00:48:49.006Z,14.10
2018-07-11T00:51:18.409Z,14.10
2018-07-11T00:53:48.498Z,14.10
2018-07-11T00:56:17.669Z,14.10
2018-07-11T00:59:54.379Z,14.10
2018-07-11T01:02:23.641Z,14.10
2018-07-11T01:04:52.741Z,14.00
2018-07-11T01:07:21.885Z,13.90
2018-07-11T01:09:51.411Z,13.90
2018-07-11T01:12:20.643Z,13.80
2018-07-11T01:14:49.744Z,13.70
2018-07-11T01:17:24.271Z,13.70
2018-07-11T01:19:53.487Z,13.60
2018-07-11T01:22:22.584Z,13.50
2018-07-11T01:24:51.688Z,13.50
2018-07-11T01:27:20.775Z,13.60
2018-07-11T01:29:49.892Z,13.60
2018-07-11T01:32:19.004Z,13.50
2018-07-11T01:34:48.127Z,13.50
2018-07-11T01:37:17.352Z,13.50
2018-07-11T01:39:46.487Z,13.60
2018-07-11T01:42:15.561Z,13.60
2018-07-11T01:44:44.694Z,13.60
2018-07-11T01:47:13.796Z,13.60
2018-07-11T01:49:42.916Z,13.50
2018-07-11T01:52:23.554Z,13.50
2018-07-11T01:54:52.679Z,13.50
2018-07-11T01:57:21.904Z,13.50
2018-07-11T01:59:51.065Z,13.50
2018-07-11T02:02:20.176Z,13.40
2018-07-11T02:04:49.265Z,13.40
2018-07-11T02:07:18.327Z,13.40
2018-07-11T02:09:47.427Z,13.40
2018-07-11T02:14:49.412Z,13.30
2018-07-11T02:17:18.596Z,13.30
2018-07-11T02:19:47.724Z,13.20
2018-07-11T02:22:16.831Z,13.20
2018-07-11T02:24:45.931Z,13.20
2018-07-11T02:27:15.054Z,13.20
2018-07-11T02:29:44.160Z,13.20
2018-07-11T02:32:13.856Z,13.10
2018-07-11T02:34:43.001Z,13.10
2018-07-11T02:37:12.109Z,13.00
2018-07-11T02:39:41.182Z,13.00
2018-07-11T02:42:10.298Z,13.00
2018-07-11T02:44:39.375Z,13.00
2018-07-11T02:48:11.477Z,13.00
2018-07-11T02:50:40.576Z,13.00
2018-07-11T02:53:09.675Z,13.00
2018-07-11T02:55:38.747Z,13.10
2018-07-11T02:58:07.824Z,13.20
2018-07-11T03:00:37.001Z,13.20
2018-07-11T03:03:06.136Z,13.30
2018-07-11T03:05:35.213Z,13.40
2018-07-11T03:08:04.296Z,13.40
2018-07-11T03:10:33.383Z,13.50
2018-07-11T03:13:02.436Z,13.60
2018-07-11T03:15:31.497Z,13.60
2018-07-11T03:18:00.682Z,13.60
2018-07-11T03:20:29.789Z,13.50
2018-07-11T03:22:58.895Z,13.50
2018-07-11T03:25:27.996Z,13.50
2018-07-11T03:27:57.068Z,13.60
2018-07-11T03:30:26.224Z,13.60
2018-07-11T03:32:55.324Z,13.60
2018-07-11T03:35:24.406Z,13.60
2018-07-11T03:37:53.491Z,13.60
2018-07-11T03:40:22.648Z,13.70
2018-07-11T03:42:51.747Z,13.70
2018-07-11T03:45:20.887Z,13.70
2018-07-11T03:47:49.940Z,13.80
2018-07-11T03:52:47.829Z,13.80
2018-07-11T03:55:16.915Z,13.80
2018-07-11T03:57:45.959Z,13.70
2018-07-11T04:00:15.032Z,13.70
2018-07-11T04:02:44.100Z,13.70
2018-07-11T04:05:13.160Z,13.70
2018-07-11T04:07:42.295Z,13.70
2018-07-11T04:10:11.384Z,13.70
2018-07-11T04:12:40.467Z,13.70
2018-07-11T04:15:09.596Z,13.70
2018-07-11T04:17:38.698Z,13.80
2018-07-11T04:20:07.772Z,13.90
2018-07-11T04:22:36.867Z,13.90
2018-07-11T04:25:05.975Z,14.00
2018-07-11T04:27:35.100Z,14.00
2018-07-11T04:30:04.164Z,14.00
2018-07-11T04:32:33.349Z,14.00
2018-07-11T04:35:02.408Z,14.10
2018-07-11T04:37:31.519Z,14.10
2018-07-11T04:40:00.708Z,14.20
2018-07-11T04:44:58.497Z,14.30
2018-07-11T04:47:27.631Z,14.50
2018-07-11T04:49:57.109Z,14.60
2018-07-11T04:52:26.371Z,14.70
2018-07-11T04:54:55.499Z,14.80
2018-07-11T04:57:24.617Z,14.80
2018-07-11T04:59:53.691Z,14.90
2018-07-11T05:02:22.957Z,15.00
2018-07-11T05:04:52.126Z,15.00
2018-07-11T05:07:21.245Z,14.90
2018-07-11T05:09:50.387Z,14.90
2018-07-11T05:12:19.475Z,14.90
2018-07-11T05:14:48.586Z,14.90
2018-07-11T05:17:17.735Z,14.90
2018-07-11T05:19:46.829Z,14.90
2018-07-11T05:22:16.002Z,15.00
2018-07-11T05:24:45.070Z,15.10
2018-07-11T05:27:14.160Z,15.20
2018-07-11T05:32:11.960Z,15.30
2018-07-11T05:34:41.067Z,15.20
2018-07-11T05:37:10.148Z,15.10
2018-07-11T05:39:39.231Z,15.00
2018-07-11T05:44:37.072Z,15.20
2018-07-11T05:47:07.150Z,15.20
2018-07-11T05:49:36.338Z,15.30
2018-07-11T05:52:05.502Z,15.40
2018-07-11T05:54:35.039Z,15.50
2018-07-11T05:57:04.119Z,15.60
2018-07-11T05:59:33.259Z,15.70
2018-07-11T06:02:02.327Z,15.80
2018-07-11T06:04:31.417Z,15.80
2018-07-11T06:07:00.513Z,15.90
2018-07-11T06:09:29.605Z,16.10
2018-07-11T06:11:58.707Z,16.30
2018-07-11T06:14:27.809Z,16.20
2018-07-11T06:16:57.401Z,16.30
2018-07-11T06:19:26.500Z,16.40
2018-07-11T06:24:24.256Z,16.40
2018-07-11T06:26:53.704Z,16.50
2018-07-11T06:31:51.568Z,16.70
2018-07-11T06:34:20.649Z,16.70
2018-07-11T06:36:49.733Z,16.80
2018-07-11T06:39:18.921Z,16.60
2018-07-11T06:41:47.952Z,16.60
2018-07-11T06:44:17.064Z,16.60
2018-07-11T06:49:14.943Z,16.80
2018-07-11T06:51:44.296Z,17.00
2018-07-11T06:54:13.394Z,17.20
2018-07-11T06:56:42.517Z,17.10
2018-07-11T06:59:11.627Z,17.20
2018-07-11T07:01:40.688Z,17.30
2018-07-11T07:04:09.804Z,17.40
2018-07-11T07:06:38.884Z,17.50
2018-07-11T07:09:08.069Z,17.70
2018-07-11T07:11:37.136Z,18.10
2018-07-11T07:14:06.421Z,18.50
2018-07-11T07:16:35.516Z,18.60
2018-07-11T07:19:04.612Z,18.90
2018-07-11T07:21:33.683Z,19.00
2018-07-11T07:24:02.768Z,19.10
2018-07-11T07:26:31.915Z,19.20
2018-07-11T07:29:01.016Z,19.30
2018-07-11T07:31:30.091Z,19.50
2018-07-11T07:33:59.186Z,19.80
2018-07-11T07:36:28.284Z,19.90
2018-07-11T07:38:57.572Z,20.10
2018-07-11T07:41:26.671Z,20.30
2018-07-11T07:43:55.780Z,20.40
2018-07-11T07:46:24.871Z,20.40
2018-07-11T07:48:53.960Z,20.50
2018-07-11T07:51:23.065Z,20.40
2018-07-11T07:53:52.167Z,20.20
2018-07-11T07:56:21.254Z,19.90
2018-07-11T07:58:50.365Z,20.30
2018-07-11T08:01:19.546Z,20.70
2018-07-11T08:03:48.955Z,21.20
2018-07-11T08:06:18.063Z,21.00
2018-07-11T08:08:47.176Z,20.90
2018-07-11T08:11:16.284Z,20.70
2018-07-11T08:13:45.351Z,20.30
2018-07-11T08:18:43.272Z,19.80
2018-07-11T08:21:12.315Z,19.80
2018-07-11T08:23:52.955Z,19.40
2018-07-11T08:26:33.693Z,19.60
2018-07-11T08:30:17.285Z,19.40
2018-07-11T08:33:01.152Z,19.50
2018-07-11T08:36:39.492Z,19.20
2018-07-11T08:41:26.756Z,19.50
2018-07-11T08:44:12.863Z,19.20
2018-07-11T08:46:54.871Z,19.10
2018-07-11T08:49:36.442Z,19.10
2018-07-11T08:54:20.442Z,18.80
2018-07-11T08:58:10.799Z,19.00
2018-07-11T09:02:28.519Z,19.00
2018-07-11T09:05:27.544Z,19.00
2018-07-11T09:09:06.783Z,19.40
2018-07-11T09:12:10.134Z,19.60
2018-07-11T09:15:50.496Z,19.60
2018-07-11T09:21:37.644Z,19.80
2018-07-11T09:24:41.201Z,19.90
2018-07-11T09:27:10.723Z,19.80
2018-07-11T09:29:40.792Z,20.00
2018-07-11T09:32:10.509Z,19.90
2018-07-11T09:34:39.674Z,19.70
2018-07-11T09:37:09.004Z,19.80
2018-07-11T09:39:38.164Z,20.10
2018-07-11T09:42:07.339Z,20.30
2018-07-11T09:44:36.518Z,20.20
2018-07-11T09:47:10.943Z,20.10
2018-07-11T09:49:40.044Z,20.30
2018-07-11T09:52:09.119Z,20.40
2018-07-11T09:54:38.266Z,20.60
2018-07-11T09:57:07.311Z,21.00
2018-07-11T09:59:36.389Z,21.30
2018-07-11T10:02:05.589Z,21.70
2018-07-11T10:04:35.065Z,22.10
2018-07-11T10:07:04.909Z,22.50
2018-07-11T10:09:34.040Z,22.50
2018-07-11T10:12:03.138Z,22.70
2018-07-11T10:14:32.238Z,22.80
2018-07-11T10:17:01.330Z,22.70
2018-07-11T10:19:30.487Z,22.40
2018-07-11T10:21:59.589Z,21.80
2018-07-11T10:24:28.688Z,21.40
2018-07-11T10:26:57.787Z,21.70
2018-07-11T10:29:26.902Z,21.50
2018-07-11T10:31:55.991Z,21.40
2018-07-11T10:34:25.096Z,21.20
2018-07-11T10:36:54.241Z,21.40
2018-07-11T10:39:23.341Z,21.60
2018-07-11T10:41:52.585Z,21.60
2018-07-11T10:44:21.664Z,21.80
2018-07-11T10:46:54.136Z,21.70
2018-07-11T10:49:23.327Z,21.90
2018-07-11T10:51:52.454Z,22.00
2018-07-11T10:54:21.640Z,22.10
2018-07-11T10:56:50.839Z,21.90
2018-07-11T10:59:20.147Z,21.60
2018-07-11T11:01:49.239Z,21.40
2018-07-11T11:04:20.053Z,21.30
2018-07-11T11:06:49.972Z,21.30
2018-07-11T11:09:19.055Z,21.10
2018-07-11T11:11:48.137Z,21.00
2018-07-11T11:14:17.273Z,21.00
2018-07-11T11:16:46.444Z,20.90
2018-07-11T11:19:15.549Z,20.90
2018-07-11T11:21:44.717Z,21.00
2018-07-11T11:24:13.784Z,21.00
2018-07-11T11:26:42.818Z,21.00
2018-07-11T11:29:12.234Z,20.90
2018-07-11T11:31:42.101Z,20.70
2018-07-11T11:34:11.176Z,20.50
2018-07-11T11:36:40.279Z,20.60
2018-07-11T11:39:09.324Z,20.60
2018-07-11T11:44:07.293Z,20.40
2018-07-11T11:46:36.356Z,20.70
2018-07-11T11:49:05.488Z,21.00
2018-07-11T11:51:34.538Z,21.30
2018-07-11T11:57:02.115Z,22.00
2018-07-11T11:59:31.387Z,22.20
2018-07-11T12:02:00.515Z,22.40
2018-07-11T12:04:29.787Z,22.80
2018-07-11T12:06:58.905Z,22.80
2018-07-11T12:09:27.958Z,23.20
2018-07-11T12:12:00.289Z,23.30
2018-07-11T12:14:29.402Z,23.20
2018-07-11T12:16:58.521Z,23.40
2018-07-11T12:19:27.595Z,23.60
2018-07-11T12:21:56.698Z,23.60
2018-07-11T12:24:25.784Z,23.90
2018-07-11T12:26:54.868Z,24.10
2018-07-11T12:29:24.472Z,24.30
2018-07-11T12:31:53.609Z,24.40
2018-07-11T12:34:22.807Z,24.60
2018-07-11T12:36:52.815Z,24.80
2018-07-11T12:39:21.920Z,25.00
2018-07-11T12:41:51.048Z,25.30
2018-07-11T12:44:20.127Z,25.40
2018-07-11T12:46:49.251Z,24.90
2018-07-11T12:52:17.346Z,25.10
2018-07-11T12:54:47.934Z,24.90
2018-07-11T12:57:18.574Z,25.10
2018-07-11T12:59:49.645Z,25.10
2018-07-11T13:02:20.705Z,24.50
2018-07-11T13:04:51.240Z,24.10
2018-07-11T13:07:21.364Z,24.30
2018-07-11T13:09:51.080Z,24.50
2018-07-11T13:12:22.015Z,24.70
2018-07-11T13:14:53.114Z,24.20
2018-07-11T13:17:24.045Z,23.30
2018-07-11T13:19:55.394Z,23.30
2018-07-11T13:22:25.824Z,23.20
2018-07-11T13:24:55.849Z,23.40
2018-07-11T13:27:26.754Z,23.40
2018-07-11T13:29:57.714Z,23.40
2018-07-11T13:32:31.284Z,23.40
2018-07-11T13:35:01.506Z,23.60
2018-07-11T13:37:32.596Z,23.80
2018-07-11T13:42:33.444Z,24.00
2018-07-11T13:45:02.882Z,24.10
2018-07-11T13:47:31.959Z,24.40
2018-07-11T13:50:01.112Z,24.70
2018-07-11T13:52:30.751Z,24.80
2018-07-11T13:54:59.864Z,25.10
2018-07-11T13:57:29.147Z,25.20
2018-07-11T13:59:58.304Z,25.00
2018-07-11T14:02:27.383Z,24.90
2018-07-11T14:04:56.536Z,24.60
2018-07-11T14:07:26.274Z,24.50
2018-07-11T14:09:55.789Z,24.30
2018-07-11T14:12:24.959Z,24.20
2018-07-11T14:14:54.337Z,24.30
2018-07-11T14:17:23.515Z,24.20
2018-07-11T14:19:52.599Z,24.00
2018-07-11T14:22:21.703Z,23.80
2018-07-11T14:24:51.427Z,23.80
2018-07-11T14:27:21.159Z,23.70
2018-07-11T14:29:50.702Z,23.40
2018-07-11T14:32:19.827Z,23.60
2018-07-11T14:34:50.951Z,23.60
2018-07-11T14:37:20.602Z,23.40
2018-07-11T14:39:49.714Z,23.10
2018-07-11T14:42:18.806Z,23.10
2018-07-11T14:44:48.402Z,23.30
2018-07-11T14:47:22.773Z,23.50
2018-07-11T14:49:51.880Z,23.60
2018-07-11T14:52:21.082Z,23.40
2018-07-11T14:54:50.159Z,23.50
2018-07-11T14:57:19.336Z,23.50
2018-07-11T14:59:48.383Z,23.40
2018-07-11T15:02:17.465Z,23.20
2018-07-11T15:04:46.752Z,23.20
2018-07-11T15:07:16.062Z,23.20
2018-07-11T15:09:45.136Z,23.00
2018-07-11T15:12:14.255Z,23.00
2018-07-11T15:14:43.383Z,22.90
2018-07-11T15:17:12.508Z,23.00
2018-07-11T15:19:41.591Z,23.40
2018-07-11T15:22:11.169Z,23.40
2018-07-11T15:24:40.289Z,23.50
2018-07-11T15:27:09.433Z,23.40
2018-07-11T15:29:38.550Z,23.20
2018-07-11T15:32:07.824Z,22.90
2018-07-11T15:34:37.075Z,22.60
2018-07-11T15:37:06.184Z,22.50
2018-07-11T15:39:35.492Z,22.50
2018-07-11T15:42:05.136Z,22.50
2018-07-11T15:44:34.301Z,22.60
2018-07-11T15:47:03.747Z,22.70
2018-07-11T15:49:32.912Z,23.00
2018-07-11T15:52:02.084Z,23.40
2018-07-11T15:54:31.739Z,23.60
2018-07-11T15:57:00.890Z,23.40
2018-07-11T15:59:32.775Z,23.20
2018-07-11T16:02:01.935Z,23.00
2018-07-11T16:04:36.344Z,22.90
2018-07-11T16:07:06.735Z,23.00
2018-07-11T16:10:10.043Z,23.00
2018-07-11T16:12:39.119Z,22.70
2018-07-11T16:15:08.227Z,22.30
2018-07-11T16:17:37.454Z,22.00
2018-07-11T16:20:06.619Z,21.50
2018-07-11T16:22:36.028Z,21.30
2018-07-11T16:25:05.627Z,21.20
2018-07-11T16:27:34.834Z,21.20
2018-07-11T16:30:04.448Z,21.10
2018-07-11T16:32:33.574Z,21.00
2018-07-11T16:35:02.687Z,20.70
2018-07-11T16:40:00.488Z,20.50
2018-07-11T16:42:29.583Z,20.40
2018-07-11T16:44:58.679Z,20.10
2018-07-11T16:47:28.623Z,20.10
2018-07-11T16:49:57.749Z,19.90
2018-07-11T16:52:26.874Z,19.90
2018-07-11T16:54:56.021Z,19.80
2018-07-11T16:57:36.218Z,19.70
2018-07-11T17:00:08.355Z,19.70
2018-07-11T17:02:38.912Z,19.60
2018-07-11T17:05:09.309Z,19.50
2018-07-11T17:10:08.772Z,19.40
2018-07-11T17:15:07.207Z,19.20
2018-07-11T17:17:36.618Z,19.20
2018-07-11T17:20:07.760Z,19.10
2018-07-11T17:22:50.370Z,19.10
2018-07-11T17:25:20.886Z,19.00
2018-07-11T17:27:56.732Z,18.80
2018-07-11T17:30:26.675Z,18.70
2018-07-11T17:32:56.067Z,18.70
2018-07-11T17:35:25.158Z,18.50
2018-07-11T17:37:54.299Z,18.40
2018-07-11T17:40:24.884Z,18.50
2018-07-11T17:42:54.523Z,18.50
2018-07-11T17:45:23.665Z,18.50
2018-07-11T17:50:28.216Z,18.30
2018-07-11T17:53:06.813Z,18.30
2018-07-11T17:55:37.839Z,18.20
2018-07-11T17:58:10.168Z,18.20
2018-07-11T18:00:49.563Z,18.20
2018-07-11T18:03:52.536Z,18.10
2018-07-11T18:06:29.286Z,18.10
2018-07-11T18:09:05.713Z,18.00
2018-07-11T18:11:50.770Z,17.90
2018-07-11T18:14:31.245Z,17.90
2018-07-11T18:17:17.759Z,17.80
2018-07-11T18:20:06.507Z,17.80
2018-07-11T18:22:40.982Z,17.90
2018-07-11T18:26:19.268Z,18.00
2018-07-11T18:28:57.436Z,18.00
2018-07-11T18:32:42.659Z,17.80
2018-07-11T18:35:26.938Z,17.80
2018-07-11T18:38:00.903Z,17.80
2018-07-11T18:40:37.778Z,17.70
2018-07-11T18:43:18.659Z,17.50
2018-07-11T18:45:57.757Z,17.30
2018-07-11T18:50:43.504Z,17.10
2018-07-11T18:53:24.225Z,16.90
2018-07-11T18:56:04.659Z,16.70
2018-07-11T18:58:42.640Z,16.70
2018-07-11T19:02:16.508Z,16.70
2018-07-11T19:05:55.908Z,16.80
2018-07-11T19:09:58.862Z,16.80
2018-07-11T19:12:32.122Z,16.80
2018-07-11T19:15:12.347Z,16.80
2018-07-11T19:18:03.505Z,16.80
2018-07-11T19:20:38.055Z,16.80
2018-07-11T19:23:15.372Z,16.70
2018-07-11T19:25:55.923Z,16.70
2018-07-11T19:28:33.764Z,16.70
2018-07-11T19:31:09.739Z,16.60
2018-07-11T19:33:49.819Z,16.60
2018-07-11T19:37:03.513Z,16.50
2018-07-11T19:39:48.641Z,16.50
2018-07-11T19:43:00.491Z,16.50
2018-07-11T19:49:54.137Z,16.50
2018-07-11T19:52:34.707Z,16.50
2018-07-11T19:56:43.119Z,16.20
2018-07-11T19:59:12.448Z,16.10
2018-07-11T20:01:41.566Z,16.00
2018-07-11T20:04:11.110Z,16.00
2018-07-11T20:06:40.222Z,16.00
2018-07-11T20:09:09.616Z,16.00
2018-07-11T20:11:38.785Z,15.90
2018-07-11T20:14:08.544Z,15.90
2018-07-11T20:16:37.709Z,15.90
2018-07-11T20:19:06.805Z,15.90
2018-07-11T20:21:35.933Z,15.90
2018-07-11T20:24:05.032Z,15.80
2018-07-11T20:26:34.247Z,15.80
2018-07-11T20:29:03.485Z,15.80
2018-07-11T20:31:32.559Z,15.70
2018-07-11T20:34:01.670Z,15.70
2018-07-11T20:36:30.844Z,15.60
2018-07-11T20:39:00.065Z,15.50
2018-07-11T20:41:29.183Z,15.50
2018-07-11T20:43:58.271Z,15.50
2018-07-11T20:46:27.447Z,15.50
2018-07-11T20:48:56.583Z,15.50
2018-07-11T20:51:25.635Z,15.50
2018-07-11T20:53:54.802Z,15.40
2018-07-11T20:56:23.836Z,15.40
2018-07-11T20:59:06.319Z,15.40
2018-07-11T21:01:47.180Z,15.30
2018-07-11T21:05:28.668Z,15.30
2018-07-11T21:08:13.503Z,15.30
2018-07-11T21:11:25.868Z,15.20
2018-07-11T21:19:21.529Z,15.20
2018-07-11T21:21:51.655Z,15.10
2018-07-11T21:24:20.735Z,15.00
2018-07-11T21:26:49.830Z,15.00
2018-07-11T21:29:19.252Z,15.00
2018-07-11T21:31:48.310Z,15.00
2018-07-11T21:34:17.407Z,15.00
2018-07-11T21:36:46.618Z,15.00
2018-07-11T21:39:15.707Z,15.00
2018-07-11T21:41:44.790Z,15.00
2018-07-11T21:44:14.008Z,15.00
2018-07-11T21:46:43.121Z,15.00
2018-07-11T21:49:17.035Z,15.00
2018-07-11T21:51:46.190Z,15.00
2018-07-11T21:54:15.416Z,15.00
2018-07-11T21:56:44.471Z,15.00
2018-07-11T21:59:13.601Z,15.00
2018-07-11T22:01:43.458Z,15.00
2018-07-11T22:04:12.538Z,15.00
2018-07-11T22:06:41.644Z,15.00
2018-07-11T22:09:10.799Z,15.00
2018-07-11T22:11:39.941Z,14.90
2018-07-11T22:14:09.041Z,14.80
2018-07-11T22:16:38.110Z,14.80
2018-07-11T22:19:07.324Z,14.80
2018-07-11T22:21:35.459Z,14.80
2018-07-11T22:24:03.499Z,14.70
2018-07-11T22:26:31.556Z,14.70
2018-07-11T22:28:59.606Z,14.70
2018-07-11T22:33:55.975Z,14.70
2018-07-11T22:36:24.044Z,14.70
2018-07-11T22:38:52.177Z,14.70
2018-07-11T22:41:20.307Z,14.70
2018-07-11T22:43:48.363Z,14.70
2018-07-11T22:46:16.408Z,14.70
2018-07-11T22:48:44.485Z,14.70
2018-07-11T22:51:12.552Z,14.80
2018-07-11T22:53:40.629Z,14.80
2018-07-11T22:56:08.732Z,14.80
2018-07-11T22:58:36.775Z,14.70
2018-07-11T23:01:04.810Z,14.80
2018-07-11T23:03:32.879Z,14.80
2018-07-11T23:06:00.928Z,14.80
2018-07-11T23:08:29.049Z,14.80
2018-07-11T23:10:57.095Z,14.70
2018-07-11T23:13:25.143Z,14.70
2018-07-11T23:15:53.211Z,14.70
2018-07-11T23:18:21.270Z,14.70
2018-07-11T23:20:49.449Z,14.70
2018-07-11T23:23:17.523Z,14.70
2018-07-11T23:25:45.586Z,14.60
2018-07-11T23:28:13.637Z,14.60
2018-07-11T23:30:41.709Z,14.60
2018-07-11T23:33:09.751Z,14.60
2018-07-11T23:35:37.895Z,14.60
2018-07-11T23:38:05.964Z,14.50
2018-07-11T23:40:34.027Z,14.50
2018-07-11T23:43:02.079Z,14.50
2018-07-11T23:45:30.120Z,14.50
2018-07-11T23:47:58.172Z,14.50
2018-07-11T23:50:26.751Z,14.50
2018-07-11T23:52:54.795Z,14.40
2018-07-11T23:55:22.859Z,14.30
2018-07-11T23:57:50.932Z,14.20
